createdAt,value
2024-02-18T00:00:09.804Z,5.71
2024-02-18T00:00:23.138Z,5.71
2024-02-18T00:00:56.290Z,5.71
2024-02-18T00:01:29.986Z,5.71
2024-02-18T00:01:44.643Z,5.70
2024-02-18T00:01:58.189Z,5.70
2024-02-18T00:02:11.284Z,5.69
2024-02-18T00:02:24.569Z,5.70
2024-02-18T00:02:37.698Z,5.69
2024-02-18T00:02:50.696Z,5.69
2024-02-18T00:03:03.906Z,5.69
2024-02-18T00:03:17.399Z,5.69
2024-02-18T00:03:31.566Z,5.70
2024-02-18T00:03:44.916Z,5.70
2024-02-18T00:03:58.438Z,5.69
2024-02-18T00:04:13.244Z,5.68
2024-02-18T00:04:26.588Z,5.69
2024-02-18T00:04:39.789Z,5.68
2024-02-18T00:04:53.283Z,5.68
2024-02-18T00:05:07.525Z,5.67
2024-02-18T00:05:22.198Z,5.68
2024-02-18T00:05:36.416Z,5.67
2024-02-18T00:05:49.486Z,5.68
2024-02-18T00:06:02.565Z,5.67
2024-02-18T00:06:15.610Z,5.67
2024-02-18T00:06:28.803Z,5.66
2024-02-18T00:06:42.359Z,5.67
2024-02-18T00:06:55.743Z,5.66
2024-02-18T00:07:08.947Z,5.66
2024-02-18T00:07:22.444Z,5.66
2024-02-18T00:07:37.442Z,5.65
2024-02-18T00:07:50.880Z,5.63
2024-02-18T00:08:04.407Z,5.64
2024-02-18T00:08:17.379Z,5.64
2024-02-18T00:08:30.380Z,5.63
2024-02-18T00:08:43.332Z,5.63
2024-02-18T00:08:56.347Z,5.62
2024-02-18T00:09:09.348Z,5.62
2024-02-18T00:09:22.381Z,5.62
2024-02-18T00:09:36.608Z,5.61
2024-02-18T00:09:49.955Z,5.61
2024-02-18T00:10:03.186Z,5.61
2024-02-18T00:10:16.446Z,5.61
2024-02-18T00:10:29.493Z,5.61
2024-02-18T00:10:42.823Z,5.61
2024-02-18T00:10:55.941Z,5.61
2024-02-18T00:11:09.553Z,5.61
2024-02-18T00:11:22.767Z,5.60
2024-02-18T00:11:37.057Z,5.60
2024-02-18T00:11:50.209Z,5.61
2024-02-18T00:12:03.407Z,5.60
2024-02-18T00:12:16.468Z,5.60
2024-02-18T00:12:29.573Z,5.60
2024-02-18T00:12:42.752Z,5.59
2024-02-18T00:12:55.953Z,5.59
2024-02-18T00:13:10.130Z,5.60
2024-02-18T00:13:23.157Z,5.59
2024-02-18T00:13:38.125Z,5.60
2024-02-18T00:13:51.256Z,5.60
2024-02-18T00:14:04.277Z,5.59
2024-02-18T00:14:17.347Z,5.59
2024-02-18T00:14:30.662Z,5.59
2024-02-18T00:14:44.206Z,5.59
2024-02-18T00:14:57.453Z,5.59
2024-02-18T00:15:12.117Z,5.58
2024-02-18T00:15:25.431Z,5.59
2024-02-18T00:15:38.483Z,5.58
2024-02-18T00:15:51.571Z,5.59
2024-02-18T00:16:05.064Z,5.58
2024-02-18T00:16:18.253Z,5.58
2024-02-18T00:16:32.502Z,5.59
2024-02-18T00:16:45.437Z,5.60
2024-02-18T00:16:59.420Z,5.60
2024-02-18T00:17:13.967Z,5.60
2024-02-18T00:17:26.913Z,5.61
2024-02-18T00:17:39.967Z,5.61
2024-02-18T00:17:52.956Z,5.61
2024-02-18T00:18:06.420Z,5.62
2024-02-18T00:18:19.548Z,5.62
2024-02-18T00:18:33.632Z,5.62
2024-02-18T00:18:46.742Z,5.63
2024-02-18T00:19:00.948Z,5.62
2024-02-18T00:19:14.071Z,5.63
2024-02-18T00:19:27.121Z,5.63
2024-02-18T00:19:40.411Z,5.64
2024-02-18T00:19:53.593Z,5.64
2024-02-18T00:20:07.364Z,5.64
2024-02-18T00:20:21.988Z,5.64
2024-02-18T00:20:36.725Z,5.65
2024-02-18T00:20:50.726Z,5.64
2024-02-18T00:21:03.804Z,5.65
2024-02-18T00:21:18.026Z,5.65
2024-02-18T00:21:31.236Z,5.66
2024-02-18T00:21:44.577Z,5.66
2024-02-18T00:21:58.194Z,5.66
2024-02-18T00:22:11.303Z,5.66
2024-02-18T00:22:25.297Z,5.66
2024-02-18T00:22:38.336Z,5.65
2024-02-18T00:22:51.525Z,5.66
2024-02-18T00:23:04.778Z,5.65
2024-02-18T00:23:17.688Z,5.67
2024-02-18T00:23:30.913Z,5.65
2024-02-18T00:23:43.786Z,5.66
2024-02-18T00:23:58.178Z,5.65
2024-02-18T00:24:12.235Z,5.66
2024-02-18T00:24:25.256Z,5.66
2024-02-18T00:24:38.264Z,5.67
2024-02-18T00:24:52.483Z,5.67
2024-02-18T00:25:07.804Z,5.66
2024-02-18T00:25:21.163Z,5.66
2024-02-18T00:25:34.124Z,5.67
2024-02-18T00:25:47.106Z,5.67
2024-02-18T00:26:01.814Z,5.67
2024-02-18T00:26:15.080Z,5.68
2024-02-18T00:26:38.580Z,5.68
2024-02-18T00:27:01.820Z,5.68
2024-02-18T00:27:14.997Z,5.68
2024-02-18T00:27:28.046Z,5.68
2024-02-18T00:27:42.115Z,5.67
2024-02-18T00:27:55.179Z,5.67
2024-02-18T00:28:08.858Z,5.67
2024-02-18T00:28:21.990Z,5.68
2024-02-18T00:28:34.946Z,5.67
2024-02-18T00:28:47.941Z,5.67
2024-02-18T00:29:01.619Z,5.67
2024-02-18T00:29:14.664Z,5.67
2024-02-18T00:29:27.835Z,5.67
2024-02-18T00:29:41.839Z,5.68
2024-02-18T00:29:55.113Z,5.67
2024-02-18T00:30:08.859Z,5.67
2024-02-18T00:30:21.993Z,5.66
2024-02-18T00:30:35.200Z,5.66
2024-02-18T00:30:50.716Z,5.65
2024-02-18T00:31:03.835Z,5.67
2024-02-18T00:31:16.982Z,5.67
2024-02-18T00:31:30.951Z,5.66
2024-02-18T00:31:43.893Z,5.65
2024-02-18T00:31:56.912Z,5.67
2024-02-18T00:32:09.949Z,5.66
2024-02-18T00:32:23.645Z,5.67
2024-02-18T00:32:36.756Z,5.66
2024-02-18T00:32:49.810Z,5.66
2024-02-18T00:33:04.683Z,5.66
2024-02-18T00:33:17.848Z,5.65
2024-02-18T00:33:31.107Z,5.66
2024-02-18T00:33:44.405Z,5.65
2024-02-18T00:33:57.619Z,5.65
2024-02-18T00:34:10.806Z,5.64
2024-02-18T00:34:24.973Z,5.66
2024-02-18T00:34:38.672Z,5.65
2024-02-18T00:34:52.936Z,5.65
2024-02-18T00:35:07.158Z,5.65
2024-02-18T00:35:21.623Z,5.65
2024-02-18T00:35:34.649Z,5.65
2024-02-18T00:35:47.771Z,5.64
2024-02-18T00:36:01.078Z,5.64
2024-02-18T00:36:15.090Z,5.64
2024-02-18T00:36:28.665Z,5.65
2024-02-18T00:36:42.749Z,5.65
2024-02-18T00:36:56.102Z,5.65
2024-02-18T00:37:09.108Z,5.65
2024-02-18T00:37:22.172Z,5.66
2024-02-18T00:37:35.213Z,5.65
2024-02-18T00:37:48.188Z,5.66
2024-02-18T00:38:01.357Z,5.67
2024-02-18T00:38:14.406Z,5.66
2024-02-18T00:38:29.109Z,5.67
2024-02-18T00:38:43.194Z,5.67
2024-02-18T00:38:56.285Z,5.67
2024-02-18T00:39:10.932Z,5.67
2024-02-18T00:39:24.399Z,5.68
2024-02-18T00:39:37.499Z,5.67
2024-02-18T00:39:50.529Z,5.68
2024-02-18T00:40:04.139Z,5.69
2024-02-18T00:40:18.390Z,5.68
2024-02-18T00:40:31.383Z,5.69
2024-02-18T00:40:44.420Z,5.68
2024-02-18T00:40:58.161Z,5.68
2024-02-18T00:41:12.300Z,5.67
2024-02-18T00:41:25.312Z,5.68
2024-02-18T00:41:38.277Z,5.68
2024-02-18T00:41:51.284Z,5.66
2024-02-18T00:42:07.521Z,5.67
2024-02-18T00:42:20.523Z,5.66
2024-02-18T00:42:33.570Z,5.67
2024-02-18T00:42:47.001Z,5.65
2024-02-18T00:43:00.447Z,5.65
2024-02-18T00:43:13.585Z,5.63
2024-02-18T00:43:26.645Z,5.63
2024-02-18T00:43:39.813Z,5.62
2024-02-18T00:43:52.829Z,5.63
2024-02-18T00:44:06.852Z,5.62
2024-02-18T00:44:20.940Z,5.61
2024-02-18T00:44:33.852Z,5.61
2024-02-18T00:44:46.846Z,5.60
2024-02-18T00:44:59.868Z,5.59
2024-02-18T00:45:14.251Z,5.59
2024-02-18T00:45:27.141Z,5.59
2024-02-18T00:45:40.147Z,5.58
2024-02-18T00:45:53.186Z,5.58
2024-02-18T00:46:18.276Z,5.57
2024-02-18T00:46:47.754Z,5.57
2024-02-18T00:47:07.721Z,5.56
2024-02-18T00:47:20.835Z,5.56
2024-02-18T00:47:33.805Z,5.56
2024-02-18T00:47:47.887Z,5.56
2024-02-18T00:48:01.012Z,5.54
2024-02-18T00:48:14.419Z,5.55
2024-02-18T00:48:27.679Z,5.55
2024-02-18T00:48:41.386Z,5.57
2024-02-18T00:48:54.890Z,5.56
2024-02-18T00:49:07.896Z,5.57
2024-02-18T00:49:20.967Z,5.56
2024-02-18T00:49:35.149Z,5.55
2024-02-18T00:49:50.982Z,5.56
2024-02-18T00:50:04.364Z,5.56
2024-02-18T00:50:17.726Z,5.56
2024-02-18T00:50:32.038Z,5.55
2024-02-18T00:50:44.997Z,5.56
2024-02-18T00:50:57.968Z,5.57
2024-02-18T00:51:10.905Z,5.57
2024-02-18T00:51:24.065Z,5.57
2024-02-18T00:51:38.134Z,5.57
2024-02-18T00:51:51.188Z,5.57
2024-02-18T00:52:05.040Z,5.57
2024-02-18T00:52:18.229Z,5.57
2024-02-18T00:52:31.260Z,5.57
2024-02-18T00:52:44.195Z,5.57
2024-02-18T00:52:57.139Z,5.58
2024-02-18T00:53:10.428Z,5.58
2024-02-18T00:53:23.505Z,5.58
2024-02-18T00:53:37.505Z,5.58
2024-02-18T00:53:50.815Z,5.57
2024-02-18T00:54:03.840Z,5.58
2024-02-18T00:54:17.068Z,5.58
2024-02-18T00:54:30.086Z,5.58
2024-02-18T00:54:43.196Z,5.58
2024-02-18T00:54:56.478Z,5.58
2024-02-18T00:55:10.168Z,5.57
2024-02-18T00:55:24.300Z,5.58
2024-02-18T00:55:37.346Z,5.57
2024-02-18T00:55:50.548Z,5.57
2024-02-18T00:56:03.584Z,5.56
2024-02-18T00:56:16.568Z,5.57
2024-02-18T00:56:29.602Z,5.57
2024-02-18T00:56:42.597Z,5.57
2024-02-18T00:56:55.551Z,5.56
2024-02-18T00:57:09.565Z,5.56
2024-02-18T00:57:23.244Z,5.56
2024-02-18T00:57:36.723Z,5.57
2024-02-18T00:57:49.755Z,5.56
2024-02-18T00:58:03.786Z,5.56
2024-02-18T00:58:17.066Z,5.55
2024-02-18T00:58:30.032Z,5.55
2024-02-18T00:58:42.989Z,5.55
2024-02-18T00:58:57.044Z,5.56
2024-02-18T00:59:10.196Z,5.54
2024-02-18T00:59:24.049Z,5.56
2024-02-18T00:59:37.107Z,5.54
2024-02-18T00:59:50.216Z,5.55
2024-02-18T01:00:03.867Z,5.54
2024-02-18T01:00:17.523Z,5.55
2024-02-18T01:00:30.673Z,5.56
2024-02-18T01:00:44.889Z,5.55
2024-02-18T01:00:58.191Z,5.55
2024-02-18T01:01:11.544Z,5.54
2024-02-18T01:01:24.796Z,5.54
2024-02-18T01:01:38.126Z,5.53
2024-02-18T01:01:51.321Z,5.54
2024-02-18T01:02:04.786Z,5.54
2024-02-18T01:02:17.863Z,5.53
2024-02-18T01:02:31.579Z,5.53
2024-02-18T01:02:45.815Z,5.54
2024-02-18T01:02:58.835Z,5.52
2024-02-18T01:03:11.876Z,5.51
2024-02-18T01:03:24.877Z,5.52
2024-02-18T01:03:38.022Z,5.51
2024-02-18T01:03:51.002Z,5.51
2024-02-18T01:04:04.425Z,5.51
2024-02-18T01:04:17.486Z,5.50
2024-02-18T01:04:31.495Z,5.51
2024-02-18T01:04:44.797Z,5.49
2024-02-18T01:04:57.889Z,5.49
2024-02-18T01:05:11.879Z,5.49
2024-02-18T01:05:25.170Z,5.49
2024-02-18T01:05:39.653Z,5.47
2024-02-18T01:05:53.098Z,5.48
2024-02-18T01:06:06.447Z,5.48
2024-02-18T01:06:19.546Z,5.47
2024-02-18T01:06:32.903Z,5.47
2024-02-18T01:06:45.959Z,5.47
2024-02-18T01:07:00.015Z,5.48
2024-02-18T01:07:13.074Z,5.46
2024-02-18T01:07:26.683Z,5.46
2024-02-18T01:07:39.638Z,5.45
2024-02-18T01:07:53.342Z,5.44
2024-02-18T01:08:06.620Z,5.44
2024-02-18T01:08:19.898Z,5.44
2024-02-18T01:08:32.902Z,5.44
2024-02-18T01:08:45.937Z,5.44
2024-02-18T01:08:59.978Z,5.43
2024-02-18T01:09:13.118Z,5.42
2024-02-18T01:09:26.159Z,5.42
2024-02-18T01:09:39.184Z,5.43
2024-02-18T01:09:52.589Z,5.42
2024-02-18T01:10:06.942Z,5.41
2024-02-18T01:10:20.131Z,5.42
2024-02-18T01:10:33.118Z,5.40
2024-02-18T01:10:46.593Z,5.41
2024-02-18T01:11:00.770Z,5.40
2024-02-18T01:11:13.859Z,5.40
2024-02-18T01:11:27.186Z,5.39
2024-02-18T01:11:40.364Z,5.40
2024-02-18T01:11:54.461Z,5.39
2024-02-18T01:12:08.048Z,5.38
2024-02-18T01:12:21.124Z,5.38
2024-02-18T01:12:34.096Z,5.38
2024-02-18T01:12:48.331Z,5.37
2024-02-18T01:13:01.406Z,5.37
2024-02-18T01:13:15.502Z,5.36
2024-02-18T01:13:28.475Z,5.36
2024-02-18T01:13:41.522Z,5.36
2024-02-18T01:13:54.508Z,5.35
2024-02-18T01:14:07.495Z,5.35
2024-02-18T01:14:21.010Z,5.35
2024-02-18T01:14:34.018Z,5.34
2024-02-18T01:14:47.095Z,5.33
2024-02-18T01:15:01.361Z,5.33
2024-02-18T01:15:14.699Z,5.33
2024-02-18T01:15:27.817Z,5.33
2024-02-18T01:15:41.357Z,5.32
2024-02-18T01:15:54.329Z,5.31
2024-02-18T01:16:10.823Z,5.32
2024-02-18T01:16:23.795Z,5.32
2024-02-18T01:16:37.705Z,5.32
2024-02-18T01:16:52.274Z,5.31
2024-02-18T01:17:05.361Z,5.31
2024-02-18T01:17:19.532Z,5.31
2024-02-18T01:17:32.829Z,5.30
2024-02-18T01:17:45.910Z,5.30
2024-02-18T01:17:59.005Z,5.30
2024-02-18T01:18:12.144Z,5.29
2024-02-18T01:18:25.394Z,5.29
2024-02-18T01:18:44.103Z,5.29
2024-02-18T01:18:58.779Z,5.28
2024-02-18T01:19:12.381Z,5.28
2024-02-18T01:19:25.950Z,5.28
2024-02-18T01:19:39.147Z,5.28
2024-02-18T01:19:58.756Z,5.27
2024-02-18T01:20:12.239Z,5.27
2024-02-18T01:20:25.256Z,5.27
2024-02-18T01:20:40.653Z,5.27
2024-02-18T01:20:53.648Z,5.27
2024-02-18T01:21:06.632Z,5.28
2024-02-18T01:21:19.777Z,5.26
2024-02-18T01:21:32.823Z,5.27
2024-02-18T01:21:45.806Z,5.27
2024-02-18T01:21:58.974Z,5.26
2024-02-18T01:22:11.957Z,5.26
2024-02-18T01:22:25.283Z,5.26
2024-02-18T01:22:39.306Z,5.26
2024-02-18T01:22:52.633Z,5.26
2024-02-18T01:23:05.893Z,5.25
2024-02-18T01:23:18.983Z,5.25
2024-02-18T01:23:31.936Z,5.25
2024-02-18T01:23:44.921Z,5.25
2024-02-18T01:23:57.854Z,5.25
2024-02-18T01:24:10.837Z,5.26
2024-02-18T01:24:24.775Z,5.24
2024-02-18T01:24:38.261Z,5.24
2024-02-18T01:24:51.402Z,5.25
2024-02-18T01:25:05.042Z,5.25
2024-02-18T01:25:18.028Z,5.24
2024-02-18T01:25:30.957Z,5.25
2024-02-18T01:25:43.856Z,5.24
2024-02-18T01:25:56.993Z,5.25
2024-02-18T01:26:10.249Z,5.25
2024-02-18T01:26:23.622Z,5.24
2024-02-18T01:26:37.789Z,5.24
2024-02-18T01:26:50.732Z,5.25
2024-02-18T01:27:04.022Z,5.25
2024-02-18T01:27:17.217Z,5.25
2024-02-18T01:27:30.184Z,5.24
2024-02-18T01:27:43.355Z,5.23
2024-02-18T01:27:56.516Z,5.24
2024-02-18T01:28:09.518Z,5.23
2024-02-18T01:28:24.586Z,5.22
2024-02-18T01:28:38.577Z,5.22
2024-02-18T01:28:51.652Z,5.22
2024-02-18T01:29:04.839Z,5.21
2024-02-18T01:29:17.823Z,5.20
2024-02-18T01:29:30.830Z,5.20
2024-02-18T01:29:43.861Z,5.20
2024-02-18T01:29:57.252Z,5.19
2024-02-18T01:30:11.255Z,5.19
2024-02-18T01:30:24.358Z,5.18
2024-02-18T01:30:38.404Z,5.18
2024-02-18T01:30:51.689Z,5.17
2024-02-18T01:31:05.163Z,5.17
2024-02-18T01:31:18.221Z,5.16
2024-02-18T01:31:31.176Z,5.16
2024-02-18T01:31:44.305Z,5.15
2024-02-18T01:31:57.436Z,5.15
2024-02-18T01:32:10.495Z,5.15
2024-02-18T01:32:23.437Z,5.14
2024-02-18T01:32:36.428Z,5.13
2024-02-18T01:32:50.674Z,5.13
2024-02-18T01:33:04.165Z,5.11
2024-02-18T01:33:17.232Z,5.12
2024-02-18T01:33:30.694Z,5.11
2024-02-18T01:33:45.225Z,5.11
2024-02-18T01:33:58.340Z,5.10
2024-02-18T01:34:11.450Z,5.10
2024-02-18T01:34:24.658Z,5.10
2024-02-18T01:34:38.827Z,5.10
2024-02-18T01:34:55.636Z,5.09
2024-02-18T01:35:09.116Z,5.08
2024-02-18T01:35:22.755Z,5.08
2024-02-18T01:35:35.736Z,5.08
2024-02-18T01:35:50.215Z,5.08
2024-02-18T01:36:03.208Z,5.07
2024-02-18T01:36:16.354Z,5.07
2024-02-18T01:36:29.325Z,5.06
2024-02-18T01:36:43.405Z,5.06
2024-02-18T01:36:56.865Z,5.06
2024-02-18T01:37:10.080Z,5.06
2024-02-18T01:37:23.141Z,5.05
2024-02-18T01:37:36.113Z,5.05
2024-02-18T01:37:49.121Z,5.03
2024-02-18T01:38:03.321Z,5.04
2024-02-18T01:38:16.356Z,5.03
2024-02-18T01:38:30.332Z,5.03
2024-02-18T01:38:43.326Z,5.02
2024-02-18T01:38:56.616Z,5.02
2024-02-18T01:39:09.623Z,5.01
2024-02-18T01:39:22.687Z,5.02
2024-02-18T01:39:36.192Z,5.00
2024-02-18T01:39:49.302Z,4.99
2024-02-18T01:40:02.420Z,4.99
2024-02-18T01:40:16.614Z,5.00
2024-02-18T01:40:29.842Z,4.99
2024-02-18T01:40:42.774Z,4.99
2024-02-18T01:40:55.809Z,4.98
2024-02-18T01:41:08.806Z,4.97
2024-02-18T01:41:21.807Z,4.98
2024-02-18T01:41:34.790Z,4.97
2024-02-18T01:41:47.809Z,4.97
2024-02-18T01:42:01.933Z,4.95
2024-02-18T01:42:14.979Z,4.95
2024-02-18T01:42:28.047Z,4.93
2024-02-18T01:42:41.408Z,4.94
2024-02-18T01:42:54.493Z,4.94
2024-02-18T01:43:07.521Z,4.93
2024-02-18T01:43:20.513Z,4.91
2024-02-18T01:43:33.548Z,4.90
2024-02-18T01:43:46.584Z,4.90
2024-02-18T01:44:00.600Z,4.89
2024-02-18T01:44:13.913Z,4.88
2024-02-18T01:44:27.241Z,4.88
2024-02-18T01:44:40.190Z,4.87
2024-02-18T01:44:53.161Z,4.85
2024-02-18T01:45:07.478Z,4.85
2024-02-18T01:45:21.205Z,4.85
2024-02-18T01:45:34.268Z,4.85
2024-02-18T01:45:47.842Z,4.84
2024-02-18T01:46:02.553Z,4.83
2024-02-18T01:46:17.122Z,4.81
2024-02-18T01:46:30.870Z,4.82
2024-02-18T01:46:44.568Z,4.81
2024-02-18T01:46:58.009Z,4.80
2024-02-18T01:47:10.992Z,4.79
2024-02-18T01:47:24.386Z,4.78
2024-02-18T01:47:41.141Z,4.77
2024-02-18T01:47:54.544Z,4.76
2024-02-18T01:48:08.777Z,4.76
2024-02-18T01:48:23.322Z,4.75
2024-02-18T01:48:36.723Z,4.74
2024-02-18T01:48:50.623Z,4.73
2024-02-18T01:49:04.920Z,4.73
2024-02-18T01:49:19.896Z,4.72
2024-02-18T01:49:35.144Z,4.70
2024-02-18T01:49:49.834Z,4.70
2024-02-18T01:50:03.635Z,4.70
2024-02-18T01:50:17.243Z,4.69
2024-02-18T01:50:30.904Z,4.69
2024-02-18T01:50:45.346Z,4.68
2024-02-18T01:51:00.026Z,4.68
2024-02-18T01:51:15.017Z,4.67
2024-02-18T01:51:28.177Z,4.67
2024-02-18T01:51:41.267Z,4.66
2024-02-18T01:51:54.763Z,4.65
2024-02-18T01:52:09.375Z,4.65
2024-02-18T01:52:23.776Z,4.63
2024-02-18T01:52:38.167Z,4.63
2024-02-18T01:52:53.572Z,4.63
2024-02-18T01:53:07.404Z,4.62
2024-02-18T01:53:21.763Z,4.60
2024-02-18T01:53:36.227Z,4.60
2024-02-18T01:53:49.966Z,4.60
2024-02-18T01:54:04.843Z,4.60
2024-02-18T01:54:18.591Z,4.58
2024-02-18T01:54:34.923Z,4.57
2024-02-18T01:54:49.017Z,4.57
2024-02-18T01:55:04.008Z,4.56
2024-02-18T01:55:18.759Z,4.55
2024-02-18T01:55:33.413Z,4.53
2024-02-18T01:55:47.176Z,4.53
2024-02-18T01:56:00.177Z,4.53
2024-02-18T01:56:15.352Z,4.52
2024-02-18T01:56:28.429Z,4.50
2024-02-18T01:56:43.402Z,4.49
2024-02-18T01:56:56.664Z,4.48
2024-02-18T01:57:10.674Z,4.48
2024-02-18T01:57:26.221Z,4.47
2024-02-18T01:57:39.534Z,4.47
2024-02-18T01:57:53.282Z,4.46
2024-02-18T01:58:06.715Z,4.46
2024-02-18T01:58:20.364Z,4.45
2024-02-18T01:58:34.197Z,4.44
2024-02-18T01:58:47.286Z,4.44
2024-02-18T01:59:00.371Z,4.43
2024-02-18T01:59:13.899Z,4.43
2024-02-18T01:59:28.241Z,4.41
2024-02-18T01:59:43.068Z,4.40
2024-02-18T01:59:57.815Z,4.40
2024-02-18T02:00:15.790Z,4.39
2024-02-18T02:00:29.383Z,4.37
2024-02-18T02:00:44.142Z,4.36
2024-02-18T02:00:57.846Z,4.35
2024-02-18T02:01:12.243Z,4.35
2024-02-18T02:01:26.937Z,4.34
2024-02-18T02:01:40.166Z,4.33
2024-02-18T02:01:53.503Z,4.33
2024-02-18T02:02:06.687Z,4.32
2024-02-18T02:02:19.840Z,4.30
2024-02-18T02:02:34.346Z,4.29
2024-02-18T02:02:50.698Z,4.28
2024-02-18T02:03:04.004Z,4.28
2024-02-18T02:03:17.333Z,4.27
2024-02-18T02:03:31.147Z,4.26
2024-02-18T02:03:45.783Z,4.26
2024-02-18T02:03:59.668Z,4.24
2024-02-18T02:04:12.859Z,4.23
2024-02-18T02:04:28.302Z,4.22
2024-02-18T02:04:42.769Z,4.20
2024-02-18T02:04:56.167Z,4.19
2024-02-18T02:05:13.312Z,4.17
2024-02-18T02:05:27.585Z,4.16
2024-02-18T02:05:43.176Z,4.15
2024-02-18T02:05:58.393Z,4.16
2024-02-18T02:06:15.149Z,4.14
2024-02-18T02:06:30.798Z,4.12
2024-02-18T02:06:46.149Z,4.12
2024-02-18T02:07:00.462Z,4.11
2024-02-18T02:07:13.980Z,4.10
2024-02-18T02:07:27.443Z,4.09
2024-02-18T02:07:40.627Z,4.08
2024-02-18T02:07:54.404Z,4.08
2024-02-18T02:08:07.797Z,4.07
2024-02-18T02:08:24.208Z,4.06
2024-02-18T02:08:37.433Z,4.06
2024-02-18T02:08:50.943Z,4.05
2024-02-18T02:09:04.558Z,4.04
2024-02-18T02:09:18.128Z,4.05
2024-02-18T02:09:31.469Z,4.03
2024-02-18T02:09:45.411Z,4.02
2024-02-18T02:09:58.982Z,4.02
2024-02-18T02:10:13.987Z,4.01
2024-02-18T02:10:27.209Z,4.01
2024-02-18T02:10:40.485Z,4.00
2024-02-18T02:10:53.624Z,3.99
2024-02-18T02:11:06.834Z,3.99
2024-02-18T02:11:20.100Z,3.98
2024-02-18T02:11:33.150Z,3.98
2024-02-18T02:11:46.229Z,3.97
2024-02-18T02:11:59.242Z,3.96
2024-02-18T02:12:12.487Z,3.95
2024-02-18T02:12:27.157Z,3.95
2024-02-18T02:12:40.312Z,3.94
2024-02-18T02:12:53.618Z,3.93
2024-02-18T02:13:07.226Z,3.92
2024-02-18T02:13:26.120Z,3.92
2024-02-18T02:13:43.082Z,3.91
2024-02-18T02:13:57.640Z,3.89
2024-02-18T02:14:11.408Z,3.88
2024-02-18T02:14:26.078Z,3.87
2024-02-18T02:14:40.869Z,3.85
2024-02-18T02:14:55.059Z,3.85
2024-02-18T02:15:10.409Z,3.84
2024-02-18T02:15:23.772Z,3.83
2024-02-18T02:15:37.032Z,3.83
2024-02-18T02:15:50.439Z,3.82
2024-02-18T02:16:03.957Z,3.81
2024-02-18T02:16:18.455Z,3.81
2024-02-18T02:16:31.447Z,3.80
2024-02-18T02:16:45.058Z,3.80
2024-02-18T02:16:58.163Z,3.79
2024-02-18T02:17:15.406Z,3.78
2024-02-18T02:17:28.335Z,3.77
2024-02-18T02:17:41.515Z,3.76
2024-02-18T02:17:54.816Z,3.76
2024-02-18T02:18:08.898Z,3.75
2024-02-18T02:18:22.090Z,3.74
2024-02-18T02:18:35.682Z,3.74
2024-02-18T02:18:48.907Z,3.73
2024-02-18T02:19:02.042Z,3.72
2024-02-18T02:19:15.072Z,3.71
2024-02-18T02:19:28.448Z,3.70
2024-02-18T02:19:41.895Z,3.70
2024-02-18T02:19:54.993Z,3.69
2024-02-18T02:20:11.133Z,3.68
2024-02-18T02:20:25.680Z,3.67
2024-02-18T02:20:38.703Z,3.67
2024-02-18T02:20:51.890Z,3.67
2024-02-18T02:21:05.455Z,3.65
2024-02-18T02:21:20.030Z,3.65
2024-02-18T02:21:33.077Z,3.64
2024-02-18T02:21:46.189Z,3.63
2024-02-18T02:21:59.224Z,3.63
2024-02-18T02:22:12.308Z,3.62
2024-02-18T02:22:25.277Z,3.62
2024-02-18T02:22:39.511Z,3.61
2024-02-18T02:22:52.503Z,3.60
2024-02-18T02:23:06.987Z,3.60
2024-02-18T02:23:20.234Z,3.59
2024-02-18T02:23:35.288Z,3.58
2024-02-18T02:23:48.593Z,3.56
2024-02-18T02:24:01.619Z,3.57
2024-02-18T02:24:14.917Z,3.55
2024-02-18T02:24:28.010Z,3.53
2024-02-18T02:24:41.090Z,3.54
2024-02-18T02:24:55.252Z,3.53
2024-02-18T02:25:11.405Z,3.52
2024-02-18T02:25:24.504Z,3.52
2024-02-18T02:25:37.568Z,3.50
2024-02-18T02:25:52.816Z,3.49
2024-02-18T02:26:06.395Z,3.48
2024-02-18T02:26:21.814Z,3.48
2024-02-18T02:26:38.866Z,3.46
2024-02-18T02:26:57.423Z,3.46
2024-02-18T02:27:15.319Z,3.45
2024-02-18T02:27:35.408Z,3.43
2024-02-18T02:27:54.718Z,3.43
2024-02-18T02:28:13.920Z,3.42
2024-02-18T02:28:27.617Z,3.41
2024-02-18T02:28:46.884Z,3.40
2024-02-18T02:29:12.675Z,3.40
2024-02-18T02:29:25.959Z,3.39
2024-02-18T02:29:39.520Z,3.38
2024-02-18T02:29:53.449Z,3.37
2024-02-18T02:30:07.420Z,3.37
2024-02-18T02:30:20.727Z,3.37
2024-02-18T02:30:34.107Z,3.36
2024-02-18T02:30:47.817Z,3.36
2024-02-18T02:31:02.034Z,3.35
2024-02-18T02:31:16.487Z,3.34
2024-02-18T02:31:29.625Z,3.34
2024-02-18T02:31:43.803Z,3.34
2024-02-18T02:31:58.676Z,3.33
2024-02-18T02:32:11.756Z,3.32
2024-02-18T02:32:24.703Z,3.32
2024-02-18T02:32:37.856Z,3.30
2024-02-18T02:32:50.918Z,3.29
2024-02-18T02:33:04.237Z,3.29
2024-02-18T02:33:18.484Z,3.29
2024-02-18T02:33:32.583Z,3.28
2024-02-18T02:33:45.992Z,3.27
2024-02-18T02:33:59.032Z,3.27
2024-02-18T02:34:12.341Z,3.27
2024-02-18T02:34:25.501Z,3.26
2024-02-18T02:34:38.633Z,3.24
2024-02-18T02:34:53.866Z,3.24
2024-02-18T02:35:08.213Z,3.24
2024-02-18T02:35:23.325Z,3.24
2024-02-18T02:35:38.310Z,3.23
2024-02-18T02:35:51.555Z,3.23
2024-02-18T02:36:06.312Z,3.23
2024-02-18T02:36:19.446Z,3.23
2024-02-18T02:36:32.497Z,3.22
2024-02-18T02:36:45.508Z,3.21
2024-02-18T02:36:58.554Z,3.20
2024-02-18T02:37:12.597Z,3.20
2024-02-18T02:37:25.647Z,3.19
2024-02-18T02:37:38.868Z,3.18
2024-02-18T02:37:51.790Z,3.18
2024-02-18T02:38:05.047Z,3.17
2024-02-18T02:38:18.034Z,3.17
2024-02-18T02:38:31.343Z,3.16
2024-02-18T02:38:44.294Z,3.17
2024-02-18T02:38:58.846Z,3.15
2024-02-18T02:39:12.980Z,3.14
2024-02-18T02:39:26.219Z,3.13
2024-02-18T02:39:39.398Z,3.13
2024-02-18T02:39:52.539Z,3.12
2024-02-18T02:40:06.525Z,3.12
2024-02-18T02:40:19.699Z,3.11
2024-02-18T02:40:33.004Z,3.11
2024-02-18T02:40:46.008Z,3.10
2024-02-18T02:40:59.997Z,3.10
2024-02-18T02:41:13.102Z,3.09
2024-02-18T02:41:26.154Z,3.08
2024-02-18T02:41:39.266Z,3.08
2024-02-18T02:41:52.490Z,3.07
2024-02-18T02:42:06.570Z,3.07
2024-02-18T02:42:19.634Z,3.07
2024-02-18T02:42:34.208Z,3.06
2024-02-18T02:42:48.661Z,3.05
2024-02-18T02:43:02.629Z,3.05
2024-02-18T02:43:17.722Z,3.05
2024-02-18T02:43:31.074Z,3.05
2024-02-18T02:43:44.024Z,3.05
2024-02-18T02:43:57.106Z,3.05
2024-02-18T02:44:13.059Z,3.05
2024-02-18T02:44:27.070Z,3.03
2024-02-18T02:44:40.075Z,3.02
2024-02-18T02:44:52.983Z,3.02
2024-02-18T02:45:06.777Z,3.02
2024-02-18T02:45:19.786Z,3.01
2024-02-18T02:45:32.931Z,3.00
2024-02-18T02:45:46.234Z,3.00
2024-02-18T02:46:00.737Z,3.00
2024-02-18T02:46:13.793Z,2.99
2024-02-18T02:46:27.012Z,2.99
2024-02-18T02:46:40.624Z,2.97
2024-02-18T02:46:54.058Z,2.98
2024-02-18T02:47:07.275Z,2.97
2024-02-18T02:47:20.375Z,2.96
2024-02-18T02:47:33.411Z,2.97
2024-02-18T02:47:46.418Z,2.95
2024-02-18T02:48:00.789Z,2.95
2024-02-18T02:48:13.829Z,2.94
2024-02-18T02:48:26.850Z,2.95
2024-02-18T02:48:39.901Z,2.94
2024-02-18T02:48:52.970Z,2.93
2024-02-18T02:49:06.087Z,2.93
2024-02-18T02:49:19.606Z,2.92
2024-02-18T02:49:32.845Z,2.92
2024-02-18T02:49:45.962Z,2.92
2024-02-18T02:50:00.897Z,2.91
2024-02-18T02:50:14.089Z,2.91
2024-02-18T02:50:27.296Z,2.90
2024-02-18T02:50:40.272Z,2.90
2024-02-18T02:50:53.208Z,2.88
2024-02-18T02:51:06.472Z,2.88
2024-02-18T02:51:20.599Z,2.88
2024-02-18T02:51:33.659Z,2.87
2024-02-18T02:51:47.818Z,2.87
2024-02-18T02:52:01.342Z,2.86
2024-02-18T02:52:14.417Z,2.85
2024-02-18T02:52:27.385Z,2.85
2024-02-18T02:52:41.861Z,2.83
2024-02-18T02:52:55.373Z,2.83
2024-02-18T02:53:08.368Z,2.82
2024-02-18T02:53:21.326Z,2.82
2024-02-18T02:53:35.338Z,2.81
2024-02-18T02:53:48.352Z,2.81
2024-02-18T02:54:01.308Z,2.80
2024-02-18T02:54:14.374Z,2.79
2024-02-18T02:54:27.330Z,2.79
2024-02-18T02:54:40.739Z,2.78
2024-02-18T02:54:55.272Z,2.77
2024-02-18T02:55:09.472Z,2.77
2024-02-18T02:55:23.629Z,2.77
2024-02-18T02:55:36.601Z,2.76
2024-02-18T02:55:49.563Z,2.77
2024-02-18T02:56:02.658Z,2.77
2024-02-18T02:56:15.827Z,2.76
2024-02-18T02:56:29.092Z,2.76
2024-02-18T02:56:42.052Z,2.75
2024-02-18T02:56:55.110Z,2.74
2024-02-18T02:57:09.129Z,2.74
2024-02-18T02:57:22.306Z,2.74
2024-02-18T02:57:35.323Z,2.73
2024-02-18T02:57:49.773Z,2.73
2024-02-18T02:58:03.139Z,2.73
2024-02-18T02:58:16.582Z,2.72
2024-02-18T02:58:29.608Z,2.71
2024-02-18T02:58:42.653Z,2.71
2024-02-18T02:58:55.623Z,2.70
2024-02-18T02:59:10.050Z,2.69
2024-02-18T02:59:25.199Z,2.69
2024-02-18T02:59:38.185Z,2.67
2024-02-18T02:59:51.346Z,2.67
2024-02-18T03:00:10.782Z,2.67
2024-02-18T03:00:23.898Z,2.66
2024-02-18T03:00:36.828Z,2.66
2024-02-18T03:00:51.028Z,2.64
2024-02-18T03:01:04.376Z,2.64
2024-02-18T03:01:17.503Z,2.63
2024-02-18T03:01:30.671Z,2.62
2024-02-18T03:01:43.719Z,2.62
2024-02-18T03:01:56.767Z,2.61
2024-02-18T03:02:09.749Z,2.60
2024-02-18T03:02:22.756Z,2.59
2024-02-18T03:02:35.719Z,2.59
2024-02-18T03:02:49.705Z,2.59
2024-02-18T03:03:02.815Z,2.57
2024-02-18T03:03:15.758Z,2.57
2024-02-18T03:03:29.046Z,2.57